createdAt,value
2018-04-24T00:02:23.154Z,13.20
2018-04-24T00:04:54.503Z,13.10
2018-04-24T00:07:25.850Z,13.10
2018-04-24T00:09:55.619Z,13.10
2018-04-24T00:12:25.475Z,13.10
2018-04-24T00:14:55.186Z,13.10
2018-04-24T00:17:24.901Z,13.00
2018-04-24T00:19:56.241Z,13.00
2018-04-24T00:22:26.770Z,13.00
2018-04-24T00:24:56.484Z,13.00
2018-04-24T00:27:26.192Z,13.00
2018-04-24T00:29:56.116Z,13.00
2018-04-24T00:32:25.816Z,13.00
2018-04-24T00:34:55.734Z,12.90
2018-04-24T00:37:25.407Z,12.90
2018-04-24T00:39:55.147Z,12.90
2018-04-24T00:42:26.084Z,12.90
2018-04-24T00:45:26.516Z,12.90
2018-04-24T00:47:56.226Z,12.90
2018-04-24T00:50:26.137Z,12.90
2018-04-24T00:52:56.241Z,12.90
2018-04-24T00:55:26.172Z,12.80
2018-04-24T00:57:56.086Z,12.80
2018-04-24T01:00:25.797Z,12.80
2018-04-24T01:02:57.149Z,12.80
2018-04-24T01:05:26.989Z,12.80
2018-04-24T01:07:57.575Z,12.80
2018-04-24T01:10:27.244Z,12.80
2018-04-24T01:12:57.007Z,12.70
2018-04-24T01:15:26.716Z,12.70
2018-04-24T01:17:58.067Z,12.70
2018-04-24T01:20:30.640Z,12.70
2018-04-24T01:23:00.511Z,12.70
2018-04-24T01:25:31.089Z,12.60
2018-04-24T01:28:01.201Z,12.60
2018-04-24T01:30:31.124Z,12.60
2018-04-24T01:33:00.831Z,12.60
2018-04-24T01:35:30.535Z,12.60
2018-04-24T01:38:02.090Z,12.60
2018-04-24T01:40:32.547Z,12.60
2018-04-24T01:43:03.759Z,12.60
2018-04-24T01:45:33.879Z,12.60
2018-04-24T01:48:05.227Z,12.50
2018-04-24T01:50:34.937Z,12.50
2018-04-24T01:53:05.615Z,12.50
2018-04-24T01:55:35.587Z,12.50
2018-04-24T01:58:05.294Z,12.50
2018-04-24T02:00:35.003Z,12.50
2018-04-24T02:03:04.714Z,12.50
2018-04-24T02:05:34.629Z,12.50
2018-04-24T02:08:05.978Z,12.50
2018-04-24T02:10:35.887Z,12.50
2018-04-24T02:13:05.598Z,12.50
2018-04-24T02:15:35.307Z,12.50
2018-04-24T02:18:05.223Z,12.50
2018-04-24T02:20:34.942Z,12.50
2018-04-24T02:23:04.845Z,12.50
2018-04-24T02:25:34.765Z,12.50
2018-04-24T02:28:04.675Z,12.50
2018-04-24T02:30:34.794Z,12.40
2018-04-24T02:33:04.710Z,12.40
2018-04-24T02:35:36.055Z,12.40
2018-04-24T02:38:06.379Z,12.40
2018-04-24T02:40:37.727Z,12.40
2018-04-24T02:43:07.436Z,12.40
2018-04-24T02:45:38.789Z,12.40
2018-04-24T02:48:08.904Z,12.40
2018-04-24T02:50:41.070Z,12.30
2018-04-24T02:53:11.804Z,12.40
2018-04-24T02:55:41.513Z,12.40
2018-04-24T02:58:12.656Z,12.40
2018-04-24T03:00:44.003Z,12.30
2018-04-24T03:03:13.932Z,12.30
2018-04-24T03:05:43.628Z,12.30
2018-04-24T03:08:13.547Z,12.30
2018-04-24T03:10:43.274Z,12.30
2018-04-24T03:13:13.369Z,12.30
2018-04-24T03:15:44.104Z,12.30
2018-04-24T03:18:13.975Z,12.30
2018-04-24T03:20:43.936Z,12.30
2018-04-24T03:23:13.846Z,12.30
2018-04-24T03:25:44.580Z,12.30
2018-04-24T03:28:14.494Z,12.30
2018-04-24T03:30:44.204Z,12.20
2018-04-24T03:33:14.173Z,12.20
2018-04-24T03:35:44.648Z,12.20
2018-04-24T03:38:14.564Z,12.20
2018-04-24T03:40:44.477Z,12.20
2018-04-24T03:43:16.029Z,12.20
2018-04-24T03:45:45.945Z,12.20
2018-04-24T03:48:15.657Z,12.20
2018-04-24T03:50:46.386Z,12.20
2018-04-24T03:53:16.917Z,12.20
2018-04-24T03:55:46.840Z,12.10
2018-04-24T03:58:17.773Z,12.20
2018-04-24T04:00:48.305Z,12.10
2018-04-24T04:03:19.454Z,12.10
2018-04-24T04:05:49.513Z,12.10
2018-04-24T04:08:19.269Z,12.10
2018-04-24T04:10:49.191Z,12.10
2018-04-24T04:13:29.953Z,12.10
2018-04-24T04:16:02.423Z,12.10
2018-04-24T04:22:48.241Z,12.10
2018-04-24T04:25:18.563Z,12.10
2018-04-24T04:27:48.683Z,12.10
2018-04-24T04:30:19.577Z,12.10
2018-04-24T04:32:51.633Z,12.10
2018-04-24T04:35:22.316Z,12.10
2018-04-24T04:37:52.034Z,12.10
2018-04-24T04:40:22.708Z,12.00
2018-04-24T04:42:52.882Z,12.00
2018-04-24T04:45:22.588Z,12.00
2018-04-24T04:47:52.357Z,12.00
2018-04-24T04:50:22.277Z,12.00
2018-04-24T04:52:52.129Z,12.00
2018-04-24T04:55:21.841Z,12.00
2018-04-24T04:57:53.185Z,12.00
2018-04-24T05:00:23.304Z,12.00
2018-04-24T05:02:53.219Z,12.00
2018-04-24T05:05:23.343Z,12.00
2018-04-24T05:07:53.250Z,12.00
2018-04-24T05:10:24.660Z,11.90
2018-04-24T05:12:54.667Z,11.90
2018-04-24T05:15:24.432Z,11.90
2018-04-24T05:17:54.241Z,11.90
2018-04-24T05:20:24.461Z,11.90
2018-04-24T05:22:55.207Z,11.90
2018-04-24T05:25:24.910Z,11.70
2018-04-24T05:27:55.228Z,11.80
2018-04-24T05:30:25.147Z,11.80
2018-04-24T05:32:55.000Z,11.90
2018-04-24T05:35:25.117Z,11.90
2018-04-24T05:37:54.883Z,11.90
2018-04-24T05:40:24.594Z,11.90
2018-04-24T05:42:55.946Z,11.90
2018-04-24T05:45:25.731Z,11.90
2018-04-24T05:47:56.128Z,11.90
2018-04-24T05:50:26.096Z,11.90
2018-04-24T05:52:56.221Z,11.90
2018-04-24T05:55:25.928Z,11.90
2018-04-24T05:57:55.659Z,11.90
2018-04-24T06:00:25.545Z,11.90
2018-04-24T06:02:56.897Z,11.80
2018-04-24T06:05:27.224Z,11.80
2018-04-24T06:07:57.287Z,11.80
2018-04-24T06:10:30.369Z,11.80
2018-04-24T06:13:00.038Z,11.80
2018-04-24T06:15:29.744Z,11.80
2018-04-24T06:18:01.094Z,11.80
2018-04-24T06:20:31.209Z,11.80
2018-04-24T06:23:02.559Z,11.80
2018-04-24T06:25:32.884Z,11.80
2018-04-24T06:28:03.001Z,11.80
2018-04-24T06:30:34.488Z,11.80
2018-04-24T06:33:04.263Z,11.80
2018-04-24T06:35:35.643Z,11.80
2018-04-24T06:38:05.474Z,11.80
2018-04-24T06:40:35.439Z,11.80
2018-04-24T06:43:05.417Z,11.80
2018-04-24T06:45:35.472Z,11.80
2018-04-24T06:48:05.343Z,11.80
2018-04-24T06:50:35.304Z,11.80
2018-04-24T06:53:08.086Z,11.70
2018-04-24T06:55:38.202Z,11.70
2018-04-24T06:58:07.911Z,11.70
2018-04-24T07:00:38.037Z,11.70
2018-04-24T07:03:08.939Z,11.70
2018-04-24T07:05:38.864Z,11.70
2018-04-24T07:08:08.824Z,11.70
2018-04-24T07:10:38.714Z,11.70
2018-04-24T07:13:10.877Z,11.70
2018-04-24T07:15:42.227Z,11.70
2018-04-24T07:18:14.166Z,11.70
2018-04-24T07:20:54.431Z,11.70
2018-04-24T07:23:25.281Z,11.70
2018-04-24T07:25:55.195Z,11.70
2018-04-24T07:28:25.056Z,11.70
2018-04-24T07:30:55.441Z,11.70
2018-04-24T07:33:25.348Z,11.70
2018-04-24T07:35:55.272Z,11.70
2018-04-24T07:38:25.179Z,11.70
2018-04-24T07:40:54.886Z,11.70
2018-04-24T07:43:25.415Z,11.70
2018-04-24T07:46:05.111Z,11.70
2018-04-24T07:48:36.101Z,11.70
2018-04-24T07:51:06.011Z,11.70
2018-04-24T07:53:35.805Z,11.70
2018-04-24T07:56:12.060Z,11.70
2018-04-24T07:58:48.493Z,11.70
2018-04-24T08:01:18.982Z,11.70
2018-04-24T08:03:48.694Z,11.70
2018-04-24T08:06:20.085Z,11.70
2018-04-24T08:08:49.952Z,11.70
2018-04-24T08:11:20.846Z,11.70
2018-04-24T08:14:01.966Z,11.70
2018-04-24T08:16:33.429Z,11.70
2018-04-24T08:19:03.131Z,11.70
2018-04-24T08:21:32.784Z,11.70
2018-04-24T08:24:02.710Z,11.70
2018-04-24T08:26:32.458Z,11.70
2018-04-24T08:29:06.768Z,11.70
2018-04-24T08:31:37.202Z,11.70
2018-04-24T08:34:08.142Z,11.70
2018-04-24T08:36:38.173Z,11.70
2018-04-24T08:39:08.380Z,11.80
2018-04-24T08:41:38.294Z,11.80
2018-04-24T08:44:09.846Z,11.80
2018-04-24T08:46:40.583Z,11.80
2018-04-24T08:49:12.541Z,11.90
2018-04-24T08:51:42.616Z,11.90
2018-04-24T08:54:12.371Z,11.90
2018-04-24T08:56:43.724Z,11.90
2018-04-24T08:59:13.633Z,11.90
2018-04-24T09:01:43.351Z,11.90
2018-04-24T09:04:13.960Z,12.00
2018-04-24T09:06:43.789Z,12.00
2018-04-24T09:09:15.092Z,12.10
2018-04-24T09:11:44.843Z,12.10
2018-04-24T09:14:14.962Z,12.20
2018-04-24T09:16:44.672Z,12.20
2018-04-24T09:19:15.609Z,12.30
2018-04-24T09:21:46.246Z,12.30
2018-04-24T09:24:16.261Z,12.30
2018-04-24T09:26:46.122Z,12.30
2018-04-24T09:29:16.290Z,12.30
2018-04-24T09:31:46.203Z,12.30
2018-04-24T09:34:16.529Z,12.30
2018-04-24T09:36:46.760Z,12.30
2018-04-24T09:39:17.837Z,12.30
2018-04-24T09:41:47.807Z,12.30
2018-04-24T09:44:19.155Z,12.30
2018-04-24T09:46:48.994Z,12.30
2018-04-24T09:49:19.196Z,12.30
2018-04-24T09:51:49.155Z,12.30
2018-04-24T09:54:19.015Z,12.30
2018-04-24T09:56:48.943Z,12.30
2018-04-24T09:59:18.798Z,12.30
2018-04-24T10:01:48.761Z,12.30
2018-04-24T10:04:20.926Z,12.40
2018-04-24T10:06:51.659Z,12.40
2018-04-24T10:09:21.742Z,12.50
2018-04-24T10:11:51.788Z,12.50
2018-04-24T10:14:21.607Z,12.60
2018-04-24T10:16:51.728Z,12.60
2018-04-24T10:19:21.554Z,12.70
2018-04-24T10:21:53.152Z,12.70
2018-04-24T10:24:23.108Z,12.70
2018-04-24T10:26:52.980Z,12.70
2018-04-24T10:29:22.942Z,12.70
2018-04-24T10:31:52.859Z,12.70
2018-04-24T10:34:24.404Z,12.70
2018-04-24T10:36:54.459Z,12.70
2018-04-24T10:39:24.439Z,12.70
2018-04-24T10:41:54.762Z,12.70
2018-04-24T10:44:24.472Z,12.80
2018-04-24T10:46:54.179Z,12.80
2018-04-24T10:49:24.094Z,12.90
2018-04-24T10:51:54.082Z,12.90
2018-04-24T10:54:24.038Z,13.00
2018-04-24T10:56:54.812Z,13.00
2018-04-24T10:59:24.625Z,13.00
2018-04-24T11:01:54.647Z,13.10
2018-04-24T11:04:26.046Z,13.10
2018-04-24T11:06:56.322Z,13.10
2018-04-24T11:09:26.072Z,13.10
2018-04-24T11:11:55.998Z,13.10
2018-04-24T11:14:26.104Z,13.10
2018-04-24T11:16:55.814Z,13.10
2018-04-24T11:19:25.933Z,13.10
2018-04-24T11:21:56.055Z,13.20
2018-04-24T11:24:25.768Z,13.20
2018-04-24T11:26:56.500Z,13.20
2018-04-24T11:29:33.265Z,13.30
2018-04-24T11:32:13.110Z,13.40
2018-04-24T11:34:44.467Z,13.80
2018-04-24T11:37:14.587Z,13.80
2018-04-24T11:39:45.432Z,14.00
2018-04-24T11:42:15.443Z,13.90
2018-04-24T11:44:45.355Z,14.00
2018-04-24T11:47:16.905Z,14.10
2018-04-24T11:49:46.842Z,14.10
2018-04-24T11:52:16.640Z,14.20
2018-04-24T11:54:46.461Z,14.30
2018-04-24T11:57:16.412Z,14.30
2018-04-24T11:59:46.476Z,14.40
2018-04-24T12:02:16.186Z,14.40
2018-04-24T12:04:49.513Z,14.60
2018-04-24T12:07:19.349Z,14.60
2018-04-24T12:09:49.375Z,14.50
2018-04-24T12:12:19.324Z,14.50
2018-04-24T12:14:51.390Z,14.60
2018-04-24T12:17:21.200Z,14.60
2018-04-24T12:19:51.275Z,14.70
2018-04-24T12:22:21.266Z,14.80
2018-04-24T12:24:51.147Z,14.90
2018-04-24T12:27:22.702Z,15.10
2018-04-24T12:29:52.655Z,15.10
2018-04-24T12:32:22.326Z,15.00
2018-04-24T12:34:52.034Z,15.10
2018-04-24T12:37:21.958Z,15.10
2018-04-24T12:39:52.887Z,15.00
2018-04-24T12:42:24.235Z,14.90
2018-04-24T12:44:54.130Z,14.90
2018-04-24T12:47:24.923Z,14.90
2018-04-24T12:49:55.108Z,15.00
2018-04-24T12:52:24.863Z,15.10
2018-04-24T12:54:54.830Z,15.10
2018-04-24T12:57:24.952Z,15.10
2018-04-24T12:59:58.022Z,15.10
2018-04-24T13:02:28.678Z,15.00
2018-04-24T13:04:58.592Z,15.00
2018-04-24T13:07:29.775Z,15.00
2018-04-24T13:09:59.642Z,14.90
2018-04-24T13:12:30.375Z,14.90
2018-04-24T13:15:01.191Z,14.90
2018-04-24T13:17:31.228Z,14.90
2018-04-24T13:20:01.358Z,14.90
2018-04-24T13:22:31.262Z,14.90
2018-04-24T13:25:02.417Z,15.00
2018-04-24T13:27:33.548Z,15.00
2018-04-24T13:30:03.667Z,15.00
2018-04-24T13:32:34.195Z,15.00
2018-04-24T13:35:04.399Z,15.00
2018-04-24T13:37:38.483Z,15.00
2018-04-24T13:40:11.904Z,15.00
2018-04-24T13:42:43.787Z,15.00
2018-04-24T13:45:18.460Z,15.00
2018-04-24T13:47:48.182Z,15.10
2018-04-24T13:50:19.988Z,15.10
2018-04-24T13:52:50.677Z,15.10
2018-04-24T13:55:20.632Z,15.10
2018-04-24T13:57:51.933Z,15.00
2018-04-24T14:00:21.897Z,15.00
2018-04-24T14:02:51.702Z,15.00
2018-04-24T14:05:21.515Z,15.00
2018-04-24T14:07:51.511Z,15.00
2018-04-24T14:10:21.649Z,15.00
2018-04-24T14:12:52.434Z,15.00
2018-04-24T14:15:22.297Z,15.00
2018-04-24T14:17:52.007Z,15.00
2018-04-24T14:20:23.358Z,14.90
2018-04-24T14:22:54.091Z,14.90
2018-04-24T14:25:24.207Z,14.90
2018-04-24T14:27:55.764Z,15.00
2018-04-24T14:30:25.682Z,15.00
2018-04-24T14:32:56.618Z,15.00
2018-04-24T14:35:33.655Z,14.90
2018-04-24T14:38:11.258Z,14.70
2018-04-24T14:40:41.715Z,14.80
2018-04-24T14:43:11.676Z,14.90
2018-04-24T14:45:41.545Z,14.90
2018-04-24T14:48:11.691Z,14.90
2018-04-24T14:50:42.200Z,15.00
2018-04-24T14:53:19.326Z,14.90
2018-04-24T14:55:50.212Z,14.90
2018-04-24T14:58:19.882Z,14.90
2018-04-24T15:00:49.634Z,14.90
2018-04-24T15:03:19.548Z,14.90
2018-04-24T15:05:49.462Z,14.90
2018-04-24T15:08:19.174Z,15.00
2018-04-24T15:10:49.018Z,15.00
2018-04-24T15:13:18.999Z,15.10
2018-04-24T15:15:48.708Z,14.90
2018-04-24T15:18:20.059Z,14.50
2018-04-24T15:20:49.767Z,14.50
2018-04-24T15:23:19.679Z,14.30
2018-04-24T15:25:49.555Z,14.30
2018-04-24T15:28:19.714Z,14.40
2018-04-24T15:30:49.694Z,14.50
2018-04-24T15:33:19.808Z,14.60
2018-04-24T15:35:49.662Z,14.60
2018-04-24T15:38:19.540Z,14.70
2018-04-24T15:40:49.693Z,14.70
2018-04-24T15:43:19.576Z,14.70
2018-04-24T15:45:49.604Z,14.70
2018-04-24T15:48:34.185Z,14.70
2018-04-24T15:51:04.462Z,14.70
2018-04-24T15:53:34.214Z,14.70
2018-04-24T15:56:03.921Z,14.70
2018-04-24T15:58:33.590Z,14.70
2018-04-24T16:01:03.554Z,14.70
2018-04-24T16:03:33.870Z,14.70
2018-04-24T16:06:05.842Z,14.70
2018-04-24T16:08:35.747Z,14.70
2018-04-24T16:11:05.667Z,14.70
2018-04-24T16:13:35.694Z,14.70
2018-04-24T16:16:06.384Z,14.60
2018-04-24T16:18:36.635Z,14.60
2018-04-24T16:21:06.957Z,14.60
2018-04-24T16:23:39.128Z,14.60
2018-04-24T16:26:10.843Z,14.60
2018-04-24T16:28:40.797Z,14.60
2018-04-24T16:31:12.344Z,14.60
2018-04-24T16:33:42.395Z,14.60
2018-04-24T16:36:12.999Z,14.50
2018-04-24T16:38:42.912Z,14.50
2018-04-24T16:41:13.034Z,14.50
2018-04-24T16:43:46.962Z,14.50
2018-04-24T16:46:17.978Z,14.50
2018-04-24T16:48:47.824Z,14.50
2018-04-24T16:51:17.723Z,14.50
2018-04-24T16:53:48.428Z,14.50
2018-04-24T16:56:18.351Z,14.50
2018-04-24T16:58:49.159Z,14.40
2018-04-24T17:01:19.040Z,14.40
2018-04-24T17:03:49.480Z,14.40
2018-04-24T17:06:19.391Z,14.40
2018-04-24T17:08:49.459Z,14.40
2018-04-24T17:11:20.669Z,14.40
2018-04-24T17:13:50.723Z,14.40
2018-04-24T17:16:21.021Z,14.40
2018-04-24T17:18:50.755Z,14.30
2018-04-24T17:21:21.081Z,14.30
2018-04-24T17:23:50.998Z,14.30
2018-04-24T17:26:20.703Z,14.30
2018-04-24T17:28:50.620Z,14.30
2018-04-24T17:31:20.530Z,14.30
2018-04-24T17:33:50.650Z,14.20
2018-04-24T17:36:21.182Z,14.20
2018-04-24T17:38:51.187Z,14.20
2018-04-24T17:41:21.421Z,14.20
2018-04-24T17:43:51.544Z,14.10
2018-04-24T17:46:21.722Z,14.10
2018-04-24T17:48:52.189Z,14.10
2018-04-24T17:51:27.883Z,14.10
2018-04-24T17:53:59.599Z,14.10
2018-04-24T17:56:29.514Z,14.00
2018-04-24T17:59:00.131Z,14.00
2018-04-24T18:01:30.089Z,14.00
2018-04-24T18:03:59.958Z,14.00
2018-04-24T18:06:29.992Z,14.00
2018-04-24T18:09:01.341Z,13.90
2018-04-24T18:11:31.255Z,13.90
2018-04-24T18:14:01.162Z,14.00
2018-04-24T18:16:31.282Z,13.90
2018-04-24T18:19:01.841Z,13.90
2018-04-24T18:21:31.909Z,13.90
2018-04-24T18:24:02.433Z,13.90
2018-04-24T18:26:32.705Z,13.90
2018-04-24T18:29:03.265Z,13.80
2018-04-24T18:31:33.427Z,13.80
2018-04-24T18:34:03.236Z,13.80
2018-04-24T18:36:35.214Z,13.80
2018-04-24T18:39:09.685Z,13.80
2018-04-24T18:41:39.808Z,13.80
2018-04-24T18:44:09.740Z,13.70
2018-04-24T18:46:40.812Z,13.70
2018-04-24T18:49:11.637Z,13.70
2018-04-24T18:51:43.800Z,13.70
2018-04-24T18:54:15.199Z,13.60
2018-04-24T18:56:45.069Z,13.60
2018-04-24T18:59:15.062Z,13.60
2018-04-24T19:01:44.890Z,13.60
2018-04-24T19:04:14.904Z,13.60
2018-04-24T19:06:45.752Z,13.60
2018-04-24T19:09:15.834Z,13.60
2018-04-24T19:11:46.595Z,13.60
2018-04-24T19:14:20.809Z,13.50
2018-04-24T19:16:50.929Z,13.50
2018-04-24T19:19:26.577Z,13.50
2018-04-24T19:21:56.650Z,13.50
2018-04-24T19:24:31.942Z,13.50
2018-04-24T19:27:02.026Z,13.50
2018-04-24T19:29:32.158Z,13.40
2018-04-24T19:32:07.626Z,13.40
2018-04-24T19:34:37.537Z,13.40
2018-04-24T19:37:07.452Z,13.30
2018-04-24T19:39:41.677Z,13.40
2018-04-24T19:42:11.988Z,13.30
2018-04-24T19:44:42.034Z,13.30
2018-04-24T19:47:12.838Z,13.30
2018-04-24T19:50:49.518Z,13.30
2018-04-24T19:53:19.691Z,13.30
2018-04-24T19:55:52.964Z,13.30
2018-04-24T19:58:26.434Z,13.20
2018-04-24T20:00:58.815Z,13.20
2018-04-24T20:03:28.869Z,13.20
2018-04-24T20:05:58.939Z,13.20
2018-04-24T20:08:28.927Z,13.20
2018-04-24T20:10:59.074Z,13.20
2018-04-24T20:13:29.077Z,13.20
2018-04-24T20:15:58.983Z,13.10
2018-04-24T20:18:30.248Z,13.10
2018-04-24T20:21:00.164Z,13.10
2018-04-24T20:23:30.467Z,13.10
2018-04-24T20:26:00.407Z,13.10
2018-04-24T20:28:30.481Z,13.10
2018-04-24T20:31:01.255Z,13.10
2018-04-24T20:33:31.373Z,13.10
2018-04-24T20:36:02.529Z,13.00
2018-04-24T20:38:32.692Z,13.00
2018-04-24T20:41:02.549Z,13.00
2018-04-24T20:43:32.464Z,13.00
2018-04-24T20:46:02.389Z,13.00
2018-04-24T20:48:32.292Z,13.00
2018-04-24T20:51:02.278Z,13.00
2018-04-24T20:53:32.254Z,13.00
2018-04-24T20:56:02.831Z,13.00
2018-04-24T20:58:32.938Z,13.00
2018-04-24T21:01:02.934Z,13.00
2018-04-24T21:03:33.433Z,13.00
2018-04-24T21:06:03.310Z,13.00
2018-04-24T21:08:33.408Z,13.00
2018-04-24T21:11:03.364Z,13.00
2018-04-24T21:13:33.277Z,13.00
2018-04-24T21:16:03.145Z,13.00
2018-04-24T21:18:33.933Z,12.90
2018-04-24T21:21:05.270Z,12.90
2018-04-24T21:23:35.805Z,12.90
2018-04-24T21:26:05.942Z,12.90
2018-04-24T21:28:35.890Z,12.90
2018-04-24T21:31:06.160Z,12.90
2018-04-24T21:33:35.870Z,12.90
2018-04-24T21:36:06.344Z,12.90
2018-04-24T21:38:36.116Z,12.90
2018-04-24T21:41:06.017Z,12.90
2018-04-24T21:43:35.943Z,12.90
2018-04-24T21:46:06.464Z,12.90
2018-04-24T21:48:36.177Z,12.90
2018-04-24T21:51:06.093Z,12.90
2018-04-24T21:53:36.007Z,12.90
2018-04-24T21:56:05.921Z,12.90
2018-04-24T21:58:40.682Z,12.90
2018-04-24T22:01:10.457Z,12.80
2018-04-24T22:03:41.805Z,12.80
2018-04-24T22:06:11.723Z,12.80
2018-04-24T22:08:41.584Z,12.80
2018-04-24T22:11:11.445Z,12.80
2018-04-24T22:13:41.256Z,12.80
2018-04-24T22:16:11.378Z,12.80
2018-04-24T22:18:41.290Z,12.80
2018-04-24T22:21:11.020Z,12.70
2018-04-24T22:23:41.528Z,12.70
2018-04-24T22:26:12.885Z,12.70
2018-04-24T22:28:43.413Z,12.70
2018-04-24T22:31:13.114Z,12.70
2018-04-24T22:33:43.481Z,12.70
2018-04-24T22:36:13.354Z,12.70
2018-04-24T22:38:43.971Z,12.70
2018-04-24T22:41:13.946Z,12.70
2018-04-24T22:43:43.878Z,12.60
2018-04-24T22:46:13.667Z,12.60
2018-04-24T22:48:43.744Z,12.60
2018-04-24T22:51:15.090Z,12.60
2018-04-24T22:53:45.211Z,12.60
2018-04-24T22:56:15.430Z,12.60
2018-04-24T22:58:46.271Z,12.60
2018-04-24T23:01:15.977Z,12.60
2018-04-24T23:03:45.686Z,12.60
2018-04-24T23:06:15.403Z,12.60
2018-04-24T23:08:45.311Z,12.50
2018-04-24T23:11:26.496Z,12.50
2018-04-24T23:14:07.463Z,12.50
2018-04-24T23:16:48.674Z,12.50
2018-04-24T23:19:31.255Z,12.50
2018-04-24T23:22:01.373Z,12.50
2018-04-24T23:24:34.360Z,12.50
2018-04-24T23:27:04.272Z,12.50
2018-04-24T23:29:36.444Z,12.40
2018-04-24T23:32:06.977Z,12.40
2018-04-24T23:34:36.882Z,12.40
2018-04-24T23:37:07.009Z,12.40
2018-04-24T23:39:37.447Z,12.40
2018-04-24T23:42:10.684Z,12.40
2018-04-24T23:44:40.597Z,12.40
2018-04-24T23:47:11.377Z,12.40
2018-04-24T23:49:41.283Z,12.40
2018-04-24T23:52:11.988Z,12.30
2018-04-24T23:54:43.307Z,12.30
2018-04-24T23:57:13.303Z,12.30
2018-04-24T23:59:44.115Z,12.30
